27th Annual

Shea's Bob Crooker Memorial 5K

Buffalo, NY
September 16, 2018

Results Data Courtesy of:  Tempus Fugit
Overall Finish Order    Men - Age Groups      Women - Age Groups      Age Graded Overall
--------------------------------------------------------------------------------------------
Place  Name                    Time      Pace         InGroup      InSex    AGtime   AGpct  
--------------------------------------------------------------------------------------------
    1. Christopher Smykal      0:19:16  0:06:12     1/M35-39        1/M    0:18:30  70.16% 
    2. Paul Pulinski           0:20:55  0:06:44     1/M50-54        2/M    0:17:51  72.74% 
    3. Ted Cincotti            0:21:10  0:06:49     1/M55-59        3/M    0:17:55  72.45% 
    4. Robert Julian           0:21:28  0:06:55     2/M35-39        4/M    0:20:54  62.13% 
    5. Terry Hunt              0:21:29  0:06:55     2/M50-54        5/M    0:18:29  70.27% 
    6. Stefano Scarpa          0:21:43  0:06:59     2/M55-59        6/M    0:18:14  71.18% 
    7. Norman Nieminen         0:21:43  0:06:59     3/M55-59        7/M    0:18:23  70.62% 
    8. Pete Walter             0:21:48  0:07:01     4/M55-59        8/M    0:18:01  72.06% 
    9. Ryan Phillips           0:21:50  0:07:02     1/M20-24        9/M    0:21:50  59.47% 
   10. Curt Mancuso            0:22:03  0:07:06     5/M55-59       10/M    0:18:40  69.55% 
   11. Malcolm Lynch           0:22:07  0:07:07     2/M20-24       11/M    0:22:07  58.70% 
   12. Tim Renaud              0:22:17  0:07:10     3/M50-54       12/M    0:19:01  68.28% 
   13. Kevin Krumm             0:22:20  0:07:11     1/M30-34       13/M    0:22:13  58.44% 
   14. Chris Wrisley           0:22:26  0:07:13     1/M45-49       14/M    0:19:54  65.26% 
   15. Mark Musolino           0:22:33  0:07:15     2/M45-49       15/M    0:20:36  63.02% 
   16. Timothy Callan          0:22:44  0:07:19     3/M45-49       16/M    0:20:37  62.97% 
   17. Michael Lawrence        0:22:54  0:07:22     6/M55-59       17/M    0:19:05  68.05% 
   18. Steven Cahoon           0:22:55  0:07:23     3/M35-39       18/M    0:22:26  57.87% 
   19. Mike Pasternak          0:23:00  0:07:24     4/M50-54       19/M    0:19:38  66.15% 
   20. Alan Jankowski          0:23:05  0:07:26     7/M55-59       20/M    0:19:14  67.51% 
   21. Don Strasser            0:23:11  0:07:28     5/M50-54       21/M    0:20:15  64.12% 
   22. Lloyd Kitzmiller        0:23:35  0:07:35     1/M60-64       22/M    0:19:01  68.27% 
   23. Eric Lunser             0:23:44  0:07:38     4/M35-39       23/M    0:22:48  56.95% 
   24. Chuck Barnes            0:23:57  0:07:43     8/M55-59       24/M    0:20:07  64.54% 
   25. Anthony Piazza          0:24:04  0:07:45     2/M30-34       25/M    0:23:47  54.59% 
   26. Richard Pasternak       0:24:10  0:07:47     6/M50-54       26/M    0:20:57  61.99% 
   27. Richard Gibson          0:24:14  0:07:48     1/M65-69       27/M    0:18:44  69.32% 
   28. Kim Strasser            0:24:15  0:07:48     1/F45-49        1/F    0:22:22  66.01% 
   29. Vince Piccolo           0:24:25  0:07:52     4/M45-49       28/M    0:22:18  58.20% 
   30. Adam Lai                0:24:32  0:07:54     5/M35-39       29/M    0:23:44  54.72% 
   31. Steve Sirianni          0:24:40  0:07:56     7/M50-54       30/M    0:21:23  60.73% 
   32. Robert Cimini           0:24:46  0:07:58     5/M45-49       31/M    0:22:08  58.67% 
   33. Jody Musolino           0:24:52  0:08:00     1/F40-44        2/F    0:23:34  62.67% 
   34. Kevin Pelino            0:24:58  0:08:02     8/M50-54       32/M    0:21:48  59.54% 
   35. Shaun Murphy            0:25:04  0:08:04     1/M25-29       33/M    0:25:02  51.86% 
   36. Matt Jankowski          0:25:07  0:08:05     2/M25-29       34/M    0:25:07  51.69% 
   37. Alexander Buzak         0:25:13  0:08:07     3/M20-24       35/M    0:25:13  51.49% 
   38. Amie Schirching         0:25:24  0:08:11     1/F35-39        3/F    0:25:14  58.52% 
   39. Elizabeth Engler        0:25:26  0:08:11     2/F40-44        4/F    0:24:27  60.38% 
   40. Frans Dewaal            0:25:27  0:08:11     2/M60-64       36/M    0:20:11  64.33% 
   41. Fred Luongo             0:25:38  0:08:15     2/M65-69       37/M    0:19:59  64.97% 
   42. James Kern              0:25:58  0:08:21     9/M50-54       38/M    0:22:09  58.60% 
   43. Conor Tyree             0:26:02  0:08:23     1/M0-14        39/M    0:22:39  57.31% 
   44. Michael Irish           0:26:04  0:08:23     3/M65-69       40/M    0:20:19  63.89% 
   45. Paul Hruby              0:26:07  0:08:24     1/M40-44       41/M    0:24:13  53.63% 
   46. Joe Jakovac             0:26:25  0:08:30     1/M70-74       42/M    0:19:24  66.92% 
   47. Elizabeth Rakowski      0:26:29  0:08:31     1/F20-24        5/F    0:26:29  55.76% 
   48. Alexa Buzak             0:26:30  0:08:32     1/F25-29        6/F    0:26:30  55.72% 
   49. Dave Pokigo             0:26:37  0:08:34     6/M45-49       43/M    0:24:19  53.39% 
   50. Ed Barauskas            0:26:38  0:08:34     3/M60-64       44/M    0:22:44  57.13% 
   51. Jason Hager             0:26:42  0:08:36     9/M55-59       45/M    0:21:53  59.32% 
   52. John Vallone            0:26:53  0:08:39     3/M25-29       46/M    0:26:51  48.36% 
   53. Kathy Gregoire          0:27:02  0:08:42     1/F55-59        7/F    0:21:48  67.75% 
   54. Richard Stuber          0:27:05  0:08:43     4/M60-64       47/M    0:21:50  59.45% 
   55. Kathleen Rosiek         0:27:09  0:08:44     2/F55-59        8/F    0:22:09  66.65% 
   56. Jerome Giglio           0:27:09  0:08:44     4/M65-69       48/M    0:20:37  62.99% 
   57. Sheri Green             0:27:10  0:08:45     3/F40-44        9/F    0:25:45  57.36% 
   58. Molly Amos              0:27:12  0:08:45     1/F30-34       10/F    0:27:12  54.29% 
   59. Carl Gayle              0:27:16  0:08:47     7/M45-49       49/M    0:24:33  52.90% 
   60. David Cady              0:27:17  0:08:47     2/M70-74       50/M    0:19:30  66.58% 
   61. Jenny Augustine         0:27:19  0:08:48     2/F30-34       11/F    0:27:15  54.18% 
   62. Jacqueline Fletcher     0:27:22  0:08:49     1/F60-64       12/F    0:21:00  70.31% 
   63. Erin Small              0:27:35  0:08:53     2/F35-39       13/F    0:27:14  54.23% 
   64. Jim Tolon               0:27:46  0:08:56     5/M65-69       51/M    0:21:28  60.50% 
   65. Fran Warthling          0:27:48  0:08:57    10/M50-54       52/M    0:24:17  53.47% 
   66. Christine Kogutowski    0:28:12  0:09:05     2/F45-49       14/F    0:26:01  56.76% 
   67. Garrett Chambers        0:28:14  0:09:05     4/M25-29       53/M    0:28:14  45.99% 
   68. Sherry Czechowski       0:28:17  0:09:06     3/F35-39       15/F    0:27:55  52.89% 
   69. Alex Willis             0:28:23  0:09:08     5/M25-29       54/M    0:28:23  45.74% 
   70. Hector Garrido          0:28:36  0:09:12     8/M45-49       55/M    0:26:08  49.69% 
   71. Caitlyn Sears           0:28:47  0:09:16     2/F25-29       16/F    0:28:47  51.30% 
   72. Dennis Sears            0:28:49  0:09:17     3/M70-74       56/M    0:20:36  63.04% 
   73. Glenn Pawlowski         0:28:51  0:09:17     2/M40-44       57/M    0:26:45  48.55% 
   74. Russell Stark           0:28:56  0:09:19     3/M30-34       58/M    0:28:36  45.41% 
   75. Caiden Tyree            0:28:57  0:09:19     2/M0-14        59/M    0:24:12  53.63% 
   76. Jeffrey Stevens         0:29:02  0:09:21     9/M45-49       60/M    0:25:45  50.43% 
   77. William Hill            0:29:09  0:09:23     3/M40-44       61/M    0:27:13  47.70% 
   78. Scott Wojtanik          0:29:10  0:09:23     4/M30-34       62/M    0:29:01  44.75% 
   79. Tom Wilson              0:29:11  0:09:24     6/M65-69       63/M    0:22:45  57.07% 
   80. Christopher Bartnicki   0:29:15  0:09:25     4/M40-44       64/M    0:26:55  48.23% 
   81. Noelle Barth            0:29:16  0:09:25     4/F35-39       17/F    0:28:38  51.56% 
   82. Walter Ludwig           0:29:24  0:09:28    10/M55-59       65/M    0:24:06  53.87% 
   83. Marcy Burkett           0:29:28  0:09:29     3/F45-49       18/F    0:27:11  54.32% 
   84. Kathleen Donhauser      0:29:30  0:09:30     2/F60-64       19/F    0:23:13  63.61% 
   85. Patrick Griffin         0:29:32  0:09:30    10/M45-49       66/M    0:26:35  48.84% 
   86. Douglas Coe             0:29:38  0:09:32     6/M35-39       67/M    0:28:16  45.94% 
   87. Scott Ellsworth         0:29:42  0:09:34    11/M50-54       68/M    0:25:56  50.05% 
   88. Marianne Tyree          0:29:46  0:09:35     5/F35-39       20/F    0:29:08  50.70% 
   89. Jeff Cwierly            0:29:47  0:09:35     7/M35-39       69/M    0:28:59  44.78% 
   90. Julia Boot              0:29:48  0:09:36     3/F25-29       21/F    0:29:48  49.55% 
   91. Roger Paolini           0:29:49  0:09:36     4/M70-74       70/M    0:22:10  58.58% 
   92. Jennifer Pokigo         0:29:50  0:09:36     4/F40-44       22/F    0:28:16  52.23% 
   93. Amanda Mikels           0:29:52  0:09:37     5/F40-44       23/F    0:28:18  52.18% 
   94. Philip Kniejski         0:29:54  0:09:37    11/M55-59       71/M    0:25:19  51.29% 
   95. Karen Schoenhals        0:29:55  0:09:38     1/F50-54       24/F    0:26:27  55.84% 
   96. Bruce Shaner            0:29:59  0:09:39     5/M60-64       72/M    0:23:47  54.61% 
   97. Mike Del Plato          0:30:11  0:09:43    12/M55-59       73/M    0:24:57  52.04% 
   98. Josie Bearden           0:30:13  0:09:44     2/F20-24       25/F    0:30:13  48.87% 
   99. Robin Sanecki           0:30:15  0:09:44     6/F40-44       26/F    0:29:17  50.44% 
  100. Gina Brown              0:30:19  0:09:45     2/F50-54       27/F    0:26:48  55.10% 
  101. Louis Badolato          0:30:31  0:09:49     7/M65-69       74/M    0:23:35  55.05% 
  102. Samuel Harris           0:30:37  0:09:51     3/M0-14        75/M    0:27:34  47.11% 
  103. Kelsie Brownell         0:30:38  0:09:52     4/F25-29       28/F    0:30:38  48.20% 
  104. Dana Santasiero         0:30:39  0:09:52     3/F20-24       29/F    0:30:39  48.18% 
  105. Eric Amos               0:30:51  0:09:56     5/M30-34       76/M    0:30:41  42.31% 
  106. Adam Szucs              0:31:04  0:10:00     8/M35-39       77/M    0:30:14  42.93% 
  107. Logan Griffin           0:31:04  0:10:00     4/M0-14        78/M    0:28:46  45.12% 
  108. Kelly O'Connor          0:31:12  0:10:03     4/F45-49       30/F    0:28:11  52.39% 
  109. Olivia Sweet            0:31:16  0:10:04     1/F0-14        31/F    0:26:33  55.61% 
  110. Keith Noren             0:31:18  0:10:04     8/M65-69       79/M    0:23:46  54.64% 
  111. John Bell               0:31:18  0:10:04     5/M70-74       80/M    0:22:41  57.22% 
  112. Gerald Krayenvenger     0:31:24  0:10:06    13/M55-59       81/M    0:25:57  50.03% 
  113. James Gerland           0:31:36  0:10:10    11/M45-49       82/M    0:28:27  45.64% 
  114. Hannah Holden           0:31:44  0:10:13     5/F45-49       32/F    0:29:49  49.51% 
  115. Gary Guzek              0:31:50  0:10:15    12/M50-54       83/M    0:27:10  47.80% 
  116. Clara Worm              0:31:54  0:10:16     1/F15-19       33/F    0:30:53  47.82% 
  117. Jerry Sikorskyj         0:32:02  0:10:19     9/M65-69       84/M    0:24:33  52.90% 
  118. Denise Clark            0:32:04  0:10:19     6/F45-49       34/F    0:29:17  50.43% 
  119. Pamela Bierl            0:32:07  0:10:20     7/F45-49       35/F    0:29:38  49.84% 
  120. Amanda Umphreyville     0:32:17  0:10:23     6/F35-39       36/F    0:31:59  46.17% 
  121. Loren Jones             0:32:19  0:10:24    10/M65-69       85/M    0:24:46  52.43% 
  122. Evan Barnett            0:32:22  0:10:25     6/M25-29       86/M    0:32:22  40.11% 
  123. Erin Willis             0:32:22  0:10:25     5/F25-29       37/F    0:32:22  45.62% 
  124. Andrew Pietka           0:32:22  0:10:25     6/M30-34       87/M    0:32:12  40.33% 
  125. Bobby Heard             0:32:28  0:10:27     1/M75-79       88/M    0:22:29  57.74% 
  126. Danielle Vallone        0:32:29  0:10:27     6/F25-29       38/F    0:32:29  45.46% 
  127. Lisa Militello          0:32:30  0:10:28     3/F60-64       39/F    0:25:16  58.46% 
  128. Donna Uebeihoer         0:32:31  0:10:28     3/F50-54       40/F    0:29:04  50.81% 
  129. Patrick Fernandez       0:32:33  0:10:29     7/M30-34       89/M    0:32:23  40.10% 
  130. Tina Marie Drumm        0:32:40  0:10:31     4/F60-64       41/F    0:25:42  57.45% 
  131. Rachel Kingston         0:32:44  0:10:32     3/F30-34       42/F    0:32:44  45.12% 
  132. Robert Preskop          0:32:47  0:10:33    14/M55-59       90/M    0:27:19  47.53% 
  133. Colleen Kern            0:32:55  0:10:36     4/F50-54       43/F    0:29:06  50.75% 
  134. Paula Leszak            0:32:57  0:10:36     3/F55-59       44/F    0:26:34  55.58% 
  135. Paul Piduch             0:33:02  0:10:38    11/M65-69       91/M    0:25:05  51.77% 
  136. Courtney Krumm          0:33:05  0:10:39     7/F25-29       45/F    0:33:05  44.63% 
  137. James Smigelski         0:33:09  0:10:40    12/M65-69       92/M    0:24:55  52.12% 
  138. Sue Muldoon             0:33:11  0:10:41     8/F45-49       46/F    0:30:37  48.24% 
  139. Frederick Sulkowski     0:33:12  0:10:41    12/M45-49       93/M    0:30:20  42.80% 
  140. Diana Korzhukova        0:33:18  0:10:43     4/F20-24       47/F    0:33:18  44.34% 
  141. Paul Uebelhoer          0:33:20  0:10:44    13/M45-49       94/M    0:29:47  43.59% 
  142. Tom Motak               0:33:38  0:10:50    15/M55-59       95/M    0:28:28  45.60% 
  143. Andy Schalberg          0:33:39  0:10:50     6/M60-64       96/M    0:27:08  47.85% 
  144. Kimberly Kawa           0:33:42  0:10:51     5/F60-64       48/F    0:26:51  55.01% 
  145. Raymond Murphy          0:33:53  0:10:54     5/M40-44       97/M    0:31:38  41.04% 
  146. Melissa Welch           0:33:58  0:10:56     4/F30-34       49/F    0:33:58  43.48% 
  147. Judy Mowery             0:34:14  0:11:01     1/F70-74       50/F    0:23:17  63.43% 
  148. Ed Russell              0:34:16  0:11:02     2/M75-79       98/M    0:23:19  55.67% 
  149. Carolyn Lane            0:34:21  0:11:03     4/F55-59       51/F    0:28:22  52.06% 
  150. Daniel Harrington       0:34:21  0:11:03    16/M55-59       99/M    0:28:10  46.11% 
  151. Adriane Spencer         0:34:27  0:11:05     7/F35-39       52/F    0:34:08  43.27% 
  152. Sandra Mohan            0:34:33  0:11:07     7/F40-44       53/F    0:33:00  44.76% 
  153. Josette Smith           0:34:36  0:11:08     8/F40-44       54/F    0:32:47  45.04% 
  154. Krista Shafer           0:34:36  0:11:08     8/F35-39       55/F    0:34:01  43.41% 
  155. Eileen Hryckowian       0:34:42  0:11:10     5/F55-59       56/F    0:28:59  50.94% 
  156. Chris Staley            0:34:45  0:11:11     6/M40-44      100/M    0:32:27  40.02% 
  157. Ashley Chambers         0:34:48  0:11:12     5/F30-34       57/F    0:34:48  42.43% 
  158. Joan Golda              0:34:52  0:11:13     6/F60-64       58/F    0:27:46  53.17% 
  159. Sharon Grogan           0:34:53  0:11:14     7/F60-64       59/F    0:27:47  53.14% 
  160. Budd Bailey             0:34:53  0:11:14     7/M60-64      101/M    0:27:54  46.54% 
  161. Donald Szumigala        0:35:07  0:11:18     9/M35-39      102/M    0:33:44  38.49% 
  162. Deborah Diblasi         0:35:10  0:11:19     8/F60-64       60/F    0:27:20  54.03% 
  163. Mike Krayenvenger       0:35:14  0:11:20    17/M55-59      103/M    0:28:53  44.95% 
  164. Ronald Cole             0:35:35  0:11:27     8/M60-64      104/M    0:28:56  44.87% 
  165. Christopher Lalone      0:35:47  0:11:31    13/M50-54      105/M    0:30:46  42.19% 
  166. Willard Evans           0:36:09  0:11:38    13/M65-69      106/M    0:27:27  47.31% 
  167. Andi Schalberg          0:36:11  0:11:39     6/F55-59       61/F    0:29:32  50.01% 
  168. Ann More                0:36:13  0:11:39     7/F55-59       62/F    0:30:15  48.81% 
  169. Paul Phillips           0:36:16  0:11:40    14/M50-54      107/M    0:31:55  40.68% 
  170. Doreen Miller           0:36:19  0:11:41     5/F50-54       63/F    0:31:24  47.03% 
  171. Stacey Curry            0:36:28  0:11:44     9/F60-64       64/F    0:27:38  53.44% 
  172. Rayann Wheeler          0:36:33  0:11:46     9/F45-49       65/F    0:34:03  43.38% 
  173. Dawn Kubicki            0:36:38  0:11:47     9/F35-39       66/F    0:36:17  40.69% 
  174. Michael Walter          0:36:46  0:11:50    14/M65-69      108/M    0:28:40  45.30% 
  175. Lisa Slebioda           0:36:48  0:11:51    10/F45-49       67/F    0:34:17  43.08% 
  176. Larry Cichocki          0:36:50  0:11:51    15/M65-69      109/M    0:28:28  45.61% 
  177. Lee Smith               0:37:00  0:11:55    18/M55-59      110/M    0:30:35  42.46% 
  178. Chris Pitirri           0:37:02  0:11:55     7/M40-44      111/M    0:34:35  37.55% 
  179. Bill Harden             0:37:07  0:11:57     3/M75-79      112/M    0:25:16  51.40% 
  180. Edward Lewis            0:37:09  0:11:57    16/M65-69      113/M    0:28:58  44.83% 
  181. Mac Mackenzie           0:37:12  0:11:58     1/F75-79       68/F    0:24:13  60.99% 
  182. Deborah Delplato        0:37:27  0:12:03     6/F50-54       69/F    0:32:23  45.61% 
  183. Maureen Milligan        0:37:40  0:12:07     8/F55-59       70/F    0:31:28  46.93% 
  184. Ken Newsom              0:37:42  0:12:08    19/M55-59      114/M    0:31:55  40.68% 
  185. Kathleen Callan         0:37:46  0:12:09    11/F45-49       71/F    0:35:11  41.98% 
  186. Jack Syracuse           0:37:58  0:12:13     6/M70-74      115/M    0:28:13  46.01% 
  187. Angie Lanzo             0:38:03  0:12:15    10/F35-39       72/F    0:37:24  39.48% 
  188. Kimberly Emminger       0:38:05  0:12:15    12/F45-49       73/F    0:35:47  41.26% 
  189. David Dunkowski         0:38:20  0:12:20    17/M65-69      116/M    0:29:22  44.20% 
  190. Erica Newsome           0:38:31  0:12:24    13/F45-49       74/F    0:36:12  40.79% 
  191. Darlene Bigos           0:38:33  0:12:24    11/F35-39       75/F    0:38:18  38.56% 
  192. James Pedlow            0:38:35  0:12:25    18/M65-69      117/M    0:29:34  43.92% 
  193. Laura Haas              0:38:36  0:12:25     9/F55-59       76/F    0:32:37  45.27% 
  194. Lori Trock              0:38:43  0:12:28     9/F40-44       77/F    0:37:28  39.41% 
  195. Rachel Burns            0:38:45  0:12:28    14/F45-49       78/F    0:35:23  41.73% 
  196. Lisa Wagner             0:38:46  0:12:29    15/F45-49       79/F    0:35:46  41.29% 
  197. Russell Previte         0:38:53  0:12:31    19/M65-69      118/M    0:30:03  43.20% 
  198. Kathleen Walter         0:39:06  0:12:35     1/F65-69       80/F    0:28:29  51.83% 
  199. Jose Vargas             0:39:07  0:12:35    10/M35-39      119/M    0:38:05  34.10% 
  200. Catherine Cielewich     0:39:17  0:12:39    10/F40-44       81/F    0:38:01  38.84% 
  201. Terra Bialy             0:39:22  0:12:40    11/F40-44       82/F    0:37:35  39.28% 
  202. Jim Bachwitz            0:39:41  0:12:46    20/M55-59      120/M    0:33:04  39.27% 
  203. Lori Motak              0:40:36  0:13:04     7/F50-54       83/F    0:35:06  42.07% 
  204. Madeleine Harris        0:40:45  0:13:07     2/F0-14        84/F    0:34:37  42.67% 
  205. Judith Evans            0:40:55  0:13:10    10/F60-64       85/F    0:31:48  46.44% 
  206. Mary Padasak            0:41:01  0:13:12     6/F30-34       86/F    0:41:01  36.01% 
  207. Christina Uebelhoer     0:41:11  0:13:15     8/F50-54       87/F    0:36:48  40.12% 
  208. Sienna Uebelhoer        0:41:13  0:13:16     3/F0-14        88/F    0:36:55  39.99% 
  209. Harvey Lewis            0:41:18  0:13:18    15/M50-54      121/M    0:35:48  36.27% 
  210. Meghan May              0:41:27  0:13:20     7/F30-34       89/F    0:41:17  35.77% 
  211. Theresa North           0:41:28  0:13:21    12/F35-39       90/F    0:41:12  35.84% 
  212. Taylor Huber            0:41:30  0:13:21     8/F25-29       91/F    0:41:30  35.58% 
  213. Jan Schaner             0:41:40  0:13:25    11/F60-64       92/F    0:00:00  0.00% 
  214. Katherine Mikoley       0:41:49  0:13:28     9/F25-29       93/F    0:41:49  35.31% 
  215. Jody Lalone             0:41:59  0:13:31     9/F50-54       94/F    0:36:18  40.69% 
  216. Heather Burger          0:42:18  0:13:37    13/F35-39       95/F    0:41:35  35.51% 
  217. Rafiya Abbas            0:42:23  0:13:39    12/F40-44       96/F    0:40:28  36.49% 
  218. Christian Latona        0:42:27  0:13:40     8/M40-44      122/M    0:39:04  33.23% 
  219. John Leszak             0:42:41  0:13:44     9/M60-64      123/M    0:34:25  37.72% 
  220. Jessica Rodriguez       0:42:43  0:13:45    14/F35-39       97/F    0:42:10  35.02% 
  221. Donna Hlavaty           0:42:59  0:13:50    10/F55-59       98/F    0:35:04  42.10% 
  222. Edna Hyer               0:43:22  0:13:58     1/F80-99       99/F    0:23:49  61.99% 
  223. Jacquie Krajnik         0:43:41  0:14:04    10/F25-29      100/F    0:43:41  33.80% 
  224. Julianna Jurkowski      0:43:52  0:14:07    13/F40-44      101/F    0:42:27  34.78% 
  225. Noelle Jurkowski        0:43:53  0:14:07     4/F0-14       102/F    0:37:16  39.62% 
  226. John Furman             0:43:59  0:14:09     7/M70-74      124/M    0:32:42  39.71% 
  227. Douglas Hlavaty         0:44:01  0:14:10    21/M55-59      125/M    0:36:05  35.98% 
  228. Margaret Morris         0:44:02  0:14:10    11/F25-29      103/F    0:44:02  33.54% 
  229. Darlene Grllo           0:44:39  0:14:22    14/F40-44      104/F    0:42:19  34.90% 
  230. Marisa Scroger          0:44:39  0:14:22    15/F35-39      105/F    0:44:04  33.50% 
  231. Jill Grosskopf          0:44:57  0:14:28    16/F35-39      106/F    0:43:59  33.57% 
  232. Anthony Cumbo           0:44:59  0:14:29     8/M30-34      126/M    0:44:51  28.95% 
  233. Elizabeth Cumbo         0:44:59  0:14:29    12/F25-29      107/F    0:44:59  32.83% 
  234. Laura Cantwell          0:45:25  0:14:37     8/F30-34      108/F    0:45:24  32.52% 
  235. Paul Hassall            0:45:35  0:14:40     8/M70-74      127/M    0:33:29  38.78% 
  236. Patricia Cochrane       0:45:55  0:14:47    12/F60-64      109/F    0:35:14  41.91% 
  237. Roger Oppel             0:46:05  0:14:50    22/M55-59      128/M    0:37:47  34.37% 
  238. Donna Gilbert           0:46:05  0:14:50    13/F60-64      110/F    0:36:16  40.72% 
  239. Cheryl Foy              0:46:23  0:14:56    17/F35-39      111/F    0:45:47  32.25% 
  240. Joe Romano              0:46:23  0:14:56    23/M55-59      129/M    0:38:57  33.33% 
  241. John Harris             0:46:43  0:15:02    11/M35-39      130/M    0:45:28  28.55% 
  242. Kathleen Sullivan       0:47:06  0:15:10    10/F50-54      112/F    0:40:43  36.27% 
  243. Kevin Gallagher         0:47:47  0:15:23    20/M65-69      131/M    0:36:37  35.46% 
  244. Joseph Pascaretta       0:48:12  0:15:31     9/M40-44      132/M    0:44:22  29.27% 
  245. Teresa Pascaretta       0:48:20  0:15:33    18/F35-39      113/F    0:47:31  31.08% 
  246. Fran Rowe               0:48:21  0:15:34     2/F75-79      114/F    0:30:04  49.12% 
  247. Sarah Diliberto         0:48:44  0:15:41     9/F30-34      115/F    0:48:32  30.43% 
  248. Stacey Woods            0:49:55  0:16:04     5/F20-24      116/F    0:49:55  29.58% 
  249. Barb Krajewski          0:50:17  0:16:11    14/F60-64      117/F    0:40:03  36.87% 
  250. Cindy Stankiewicz       0:50:18  0:16:11    11/F55-59      118/F    0:42:01  35.14% 
  251. Sharon Koszuta          0:50:45  0:16:20    15/F60-64      119/F    0:39:56  36.98% 
  252. Annette Sweet           0:50:45  0:16:20    19/F35-39      120/F    0:50:06  29.48% 
  253. John Radzikowski        0:51:04  0:16:26     9/M70-74      133/M    0:37:30  34.62% 
  254. #313                    0:51:21  0:16:32     1/ 0-14         1/     0:00:00  0.00% 
  255. Jill Finkley            0:51:21  0:16:32    16/F45-49      121/F    0:46:23  31.83% 
  256. Andrea Galvin           0:52:14  0:16:49    11/F50-54      122/F    0:44:39  33.07% 
  257. Frank Ciccia            0:52:16  0:16:49    24/M55-59      134/M    0:43:54  29.58% 
  258. Tim Schuster            0:52:18  0:16:50    16/M50-54      135/M    0:44:38  29.09% 
  259. Karen Hyde              0:52:30  0:16:54    16/F60-64      123/F    0:40:48  36.19% 
  260. Dennis Hyde             0:52:32  0:16:55    10/M60-64      136/M    0:42:01  30.90% 
  261. Jillian Kenyon          0:52:37  0:16:56    20/F35-39      124/F    0:51:44  28.55% 
  262. Dick Gucwa              0:54:26  0:17:31     1/M80-99      137/M    0:31:31  41.19% 
  263. Andrew Marts            0:56:00  0:18:01     7/M25-29      138/M    0:55:59  23.19% 
  264. Kim Marts               0:56:00  0:18:01    12/F55-59      125/F    0:47:20  31.20% 
  265. Scott Cielewich         0:57:17  0:18:26    12/M35-39      139/M    0:54:38  23.76% 
  266. Cynthia Griffin         0:57:19  0:18:27    17/F45-49      126/F    0:53:52  27.41% 
  267. Natalie Jurkowski       0:58:24  0:18:48     5/F0-14       127/F    0:53:31  27.59% 
  268. Carleen Yarington       0:58:32  0:18:50    13/F55-59      128/F    0:48:20  30.55% 
  269. Carmen Del Plato        0:59:56  0:19:17    17/M50-54      140/M    0:51:08  25.39% 
  270. Bridget Delplato        0:59:57  0:19:18    12/F50-54      129/F    0:51:50  28.49% 
  271. Joseph Delplato         0:59:58  0:19:18     1/M15-19      141/M    0:59:58  21.65% 
  272. Danielle Delplato       0:59:58  0:19:18     6/F20-24      130/F    0:59:58  24.62% 
  273. Paul Stephens           1:01:42  0:19:52    18/M50-54      142/M    0:53:04  24.47% 
  274. Michael Huber           1:02:41  0:20:11    14/M45-49      143/M    0:57:16  22.67% 
  275. Tracy Huber             1:02:48  0:20:13    13/F50-54      131/F    0:56:07  26.31% 
  276. Colleen Oppel           1:03:07  0:20:19    21/F35-39      132/F    1:02:31  23.62% 
  277. Jessie Burr             1:03:07  0:20:19    22/F35-39      133/F    1:02:31  23.62% 
  278. Christine Digiore       1:03:40  0:20:30    14/F55-59      134/F    0:51:57  28.42% 
  279. Joanna Molnar           1:03:40  0:20:30     3/F75-79      135/F    0:41:26  35.63% 



Top of Page








Women - Age Group Results       Men - Age Groups      Overall Finish Order       Age Graded Overall
 
 
 
Women 0-14
----------------------------------------------------------------
Place  Name                    Time      Pace    OvrAll   InSex
----------------------------------------------------------------
    1. Olivia Sweet             0:31:16   0:10:04    109    31/F
    2. Madeleine Harris         0:40:45   0:13:07    204    84/F
    3. Sienna Uebelhoer         0:41:13   0:13:16    208    88/F
    4. Noelle Jurkowski         0:43:53   0:14:07    225   102/F
    5. Natalie Jurkowski        0:58:24   0:18:48    267   127/F
 
 
 
Women 15-19
----------------------------------------------------------------
Place  Name                    Time      Pace    OvrAll   InSex
----------------------------------------------------------------
    1. Clara Worm               0:31:54   0:10:16    116    33/F
 
 
 
Women 20-24
----------------------------------------------------------------
Place  Name                    Time      Pace    OvrAll   InSex
----------------------------------------------------------------
    1. Elizabeth Rakowski       0:26:29   0:08:31     47     5/F
    2. Josie Bearden            0:30:13   0:09:44     98    25/F
    3. Dana Santasiero          0:30:39   0:09:52    104    29/F
    4. Diana Korzhukova         0:33:18   0:10:43    140    47/F
    5. Stacey Woods             0:49:55   0:16:04    248   116/F
    6. Danielle Delplato        0:59:58   0:19:18    272   130/F
 
 
 
Women 25-29
----------------------------------------------------------------
Place  Name                    Time      Pace    OvrAll   InSex
----------------------------------------------------------------
    1. Alexa Buzak              0:26:30   0:08:32     48     6/F
    2. Caitlyn Sears            0:28:47   0:09:16     71    16/F
    3. Julia Boot               0:29:48   0:09:36     90    21/F
    4. Kelsie Brownell          0:30:38   0:09:52    103    28/F
    5. Erin Willis              0:32:22   0:10:25    123    37/F
    6. Danielle Vallone         0:32:29   0:10:27    126    38/F
    7. Courtney Krumm           0:33:05   0:10:39    136    45/F
    8. Taylor Huber             0:41:30   0:13:21    212    91/F
    9. Katherine Mikoley        0:41:49   0:13:28    214    93/F
   10. Jacquie Krajnik          0:43:41   0:14:04    223   100/F
   11. Margaret Morris          0:44:02   0:14:10    228   103/F
   12. Elizabeth Cumbo          0:44:59   0:14:29    233   107/F
 
 
 
Women 30-34
----------------------------------------------------------------
Place  Name                    Time      Pace    OvrAll   InSex
----------------------------------------------------------------
    1. Molly Amos               0:27:12   0:08:45     58    10/F
    2. Jenny Augustine          0:27:19   0:08:48     61    11/F
    3. Rachel Kingston          0:32:44   0:10:32    131    42/F
    4. Melissa Welch            0:33:58   0:10:56    146    49/F
    5. Ashley Chambers          0:34:48   0:11:12    157    57/F
    6. Mary Padasak             0:41:01   0:13:12    206    86/F
    7. Meghan May               0:41:27   0:13:20    210    89/F
    8. Laura Cantwell           0:45:25   0:14:37    234   108/F
    9. Sarah Diliberto          0:48:44   0:15:41    247   115/F
 
 
 
Women 35-39
----------------------------------------------------------------
Place  Name                    Time      Pace    OvrAll   InSex
----------------------------------------------------------------
    1. Amie Schirching          0:25:24   0:08:11     38     3/F
    2. Erin Small               0:27:35   0:08:53     63    13/F
    3. Sherry Czechowski        0:28:17   0:09:06     68    15/F
    4. Noelle Barth             0:29:16   0:09:25     81    17/F
    5. Marianne Tyree           0:29:46   0:09:35     88    20/F
    6. Amanda Umphreyville      0:32:17   0:10:23    120    36/F
    7. Adriane Spencer          0:34:27   0:11:05    151    52/F
    8. Krista Shafer            0:34:36   0:11:08    154    55/F
    9. Dawn Kubicki             0:36:38   0:11:47    173    66/F
   10. Angie Lanzo              0:38:03   0:12:15    187    72/F
   11. Darlene Bigos            0:38:33   0:12:24    191    75/F
   12. Theresa North            0:41:28   0:13:21    211    90/F
   13. Heather Burger           0:42:18   0:13:37    216    95/F
   14. Jessica Rodriguez        0:42:43   0:13:45    220    97/F
   15. Marisa Scroger           0:44:39   0:14:22    230   105/F
   16. Jill Grosskopf           0:44:57   0:14:28    231   106/F
   17. Cheryl Foy               0:46:23   0:14:56    239   111/F
   18. Teresa Pascaretta        0:48:20   0:15:33    245   113/F
   19. Annette Sweet            0:50:45   0:16:20    252   120/F
   20. Jillian Kenyon           0:52:37   0:16:56    261   124/F
   21. Colleen Oppel            1:03:07   0:20:19    276   132/F
   22. Jessie Burr              1:03:07   0:20:19    277   133/F
 
 
 
Women 40-44
----------------------------------------------------------------
Place  Name                    Time      Pace    OvrAll   InSex
----------------------------------------------------------------
    1. Jody Musolino            0:24:52   0:08:00     33     2/F
    2. Elizabeth Engler         0:25:26   0:08:11     39     4/F
    3. Sheri Green              0:27:10   0:08:45     57     9/F
    4. Jennifer Pokigo          0:29:50   0:09:36     92    22/F
    5. Amanda Mikels            0:29:52   0:09:37     93    23/F
    6. Robin Sanecki            0:30:15   0:09:44     99    26/F
    7. Sandra Mohan             0:34:33   0:11:07    152    53/F
    8. Josette Smith            0:34:36   0:11:08    153    54/F
    9. Lori Trock               0:38:43   0:12:28    194    77/F
   10. Catherine Cielewich      0:39:17   0:12:39    200    81/F
   11. Terra Bialy              0:39:22   0:12:40    201    82/F
   12. Rafiya Abbas             0:42:23   0:13:39    217    96/F
   13. Julianna Jurkowski       0:43:52   0:14:07    224   101/F
   14. Darlene Grllo            0:44:39   0:14:22    229   104/F
 
 
 
Women 45-49
----------------------------------------------------------------
Place  Name                    Time      Pace    OvrAll   InSex
----------------------------------------------------------------
    1. Kim Strasser             0:24:15   0:07:48     28     1/F
    2. Christine Kogutowski     0:28:12   0:09:05     66    14/F
    3. Marcy Burkett            0:29:28   0:09:29     83    18/F
    4. Kelly O'Connor           0:31:12   0:10:03    108    30/F
    5. Hannah Holden            0:31:44   0:10:13    114    32/F
    6. Denise Clark             0:32:04   0:10:19    118    34/F
    7. Pamela Bierl             0:32:07   0:10:20    119    35/F
    8. Sue Muldoon              0:33:11   0:10:41    138    46/F
    9. Rayann Wheeler           0:36:33   0:11:46    172    65/F
   10. Lisa Slebioda            0:36:48   0:11:51    175    67/F
   11. Kathleen Callan          0:37:46   0:12:09    185    71/F
   12. Kimberly Emminger        0:38:05   0:12:15    188    73/F
   13. Erica Newsome            0:38:31   0:12:24    190    74/F
   14. Rachel Burns             0:38:45   0:12:28    195    78/F
   15. Lisa Wagner              0:38:46   0:12:29    196    79/F
   16. Jill Finkley             0:51:21   0:16:32    255   121/F
   17. Cynthia Griffin          0:57:19   0:18:27    266   126/F
 
 
 
Women 50-54
----------------------------------------------------------------
Place  Name                    Time      Pace    OvrAll   InSex
----------------------------------------------------------------
    1. Karen Schoenhals         0:29:55   0:09:38     95    24/F
    2. Gina Brown               0:30:19   0:09:45    100    27/F
    3. Donna Uebeihoer          0:32:31   0:10:28    128    40/F
    4. Colleen Kern             0:32:55   0:10:36    133    43/F
    5. Doreen Miller            0:36:19   0:11:41    170    63/F
    6. Deborah Delplato         0:37:27   0:12:03    182    69/F
    7. Lori Motak               0:40:36   0:13:04    203    83/F
    8. Christina Uebelhoer      0:41:11   0:13:15    207    87/F
    9. Jody Lalone              0:41:59   0:13:31    215    94/F
   10. Kathleen Sullivan        0:47:06   0:15:10    242   112/F
   11. Andrea Galvin            0:52:14   0:16:49    256   122/F
   12. Bridget Delplato         0:59:57   0:19:18    270   129/F
   13. Tracy Huber              1:02:48   0:20:13    275   131/F
 
 
 
Women 55-59
----------------------------------------------------------------
Place  Name                    Time      Pace    OvrAll   InSex
----------------------------------------------------------------
    1. Kathy Gregoire           0:27:02   0:08:42     53     7/F
    2. Kathleen Rosiek          0:27:09   0:08:44     55     8/F
    3. Paula Leszak             0:32:57   0:10:36    134    44/F
    4. Carolyn Lane             0:34:21   0:11:03    149    51/F
    5. Eileen Hryckowian        0:34:42   0:11:10    155    56/F
    6. Andi Schalberg           0:36:11   0:11:39    167    61/F
    7. Ann More                 0:36:13   0:11:39    168    62/F
    8. Maureen Milligan         0:37:40   0:12:07    183    70/F
    9. Laura Haas               0:38:36   0:12:25    193    76/F
   10. Donna Hlavaty            0:42:59   0:13:50    221    98/F
   11. Cindy Stankiewicz        0:50:18   0:16:11    250   118/F
   12. Kim Marts                0:56:00   0:18:01    264   125/F
   13. Carleen Yarington        0:58:32   0:18:50    268   128/F
   14. Christine Digiore        1:03:40   0:20:30    278   134/F
 
 
 
Women 60-64
----------------------------------------------------------------
Place  Name                    Time      Pace    OvrAll   InSex
----------------------------------------------------------------
    1. Jacqueline Fletcher      0:27:22   0:08:49     62    12/F
    2. Kathleen Donhauser       0:29:30   0:09:30     84    19/F
    3. Lisa Militello           0:32:30   0:10:28    127    39/F
    4. Tina Marie Drumm         0:32:40   0:10:31    130    41/F
    5. Kimberly Kawa            0:33:42   0:10:51    144    48/F
    6. Joan Golda               0:34:52   0:11:13    158    58/F
    7. Sharon Grogan            0:34:53   0:11:14    159    59/F
    8. Deborah Diblasi          0:35:10   0:11:19    162    60/F
    9. Stacey Curry             0:36:28   0:11:44    171    64/F
   10. Judith Evans             0:40:55   0:13:10    205    85/F
   11. Jan Schaner              0:41:40   0:13:25    213    92/F
   12. Patricia Cochrane        0:45:55   0:14:47    236   109/F
   13. Donna Gilbert            0:46:05   0:14:50    238   110/F
   14. Barb Krajewski           0:50:17   0:16:11    249   117/F
   15. Sharon Koszuta           0:50:45   0:16:20    251   119/F
   16. Karen Hyde               0:52:30   0:16:54    259   123/F
 
 
 
Women 65-69
----------------------------------------------------------------
Place  Name                    Time      Pace    OvrAll   InSex
----------------------------------------------------------------
    1. Kathleen Walter          0:39:06   0:12:35    198    80/F
 
 
 
Women 70-74
----------------------------------------------------------------
Place  Name                    Time      Pace    OvrAll   InSex
----------------------------------------------------------------
    1. Judy Mowery              0:34:14   0:11:01    147    50/F
 
 
 
Women 75-79
----------------------------------------------------------------
Place  Name                    Time      Pace    OvrAll   InSex
----------------------------------------------------------------
    1. Mac Mackenzie            0:37:12   0:11:58    181    68/F
    2. Fran Rowe                0:48:21   0:15:34    246   114/F
    3. Joanna Molnar            1:03:40   0:20:30    279   135/F
 
 
 
Women 80-99
----------------------------------------------------------------
Place  Name                    Time      Pace    OvrAll   InSex
----------------------------------------------------------------
    1. Edna Hyer                0:43:22   0:13:58    222    99/F



Top of Page








Men - Age Group Results       Women - Age Groups       Overall Finish Order       Age Graded Overall
 
 
 
Men 0-14
--------------------------------------------------------------
Place  Name                    Time     Pace    OvrAll   InSex
--------------------------------------------------------------
    1. Conor Tyree             0:26:02  0:08:23     43    39/M
    2. Caiden Tyree            0:28:57  0:09:19     75    59/M
    3. Samuel Harris           0:30:37  0:09:51    102    75/M
    4. Logan Griffin           0:31:04  0:10:00    107    78/M
 
 
 
Men 15-19
--------------------------------------------------------------
Place  Name                    Time     Pace    OvrAll   InSex
--------------------------------------------------------------
    1. Joseph Delplato         0:59:58  0:19:18    271   141/M
 
 
 
Men 20-24
--------------------------------------------------------------
Place  Name                    Time     Pace    OvrAll   InSex
--------------------------------------------------------------
    1. Ryan Phillips           0:21:50  0:07:02      9     9/M
    2. Malcolm Lynch           0:22:07  0:07:07     11    11/M
    3. Alexander Buzak         0:25:13  0:08:07     37    35/M
 
 
 
Men 25-29
--------------------------------------------------------------
Place  Name                    Time     Pace    OvrAll   InSex
--------------------------------------------------------------
    1. Shaun Murphy            0:25:04  0:08:04     35    33/M
    2. Matt Jankowski          0:25:07  0:08:05     36    34/M
    3. John Vallone            0:26:53  0:08:39     52    46/M
    4. Garrett Chambers        0:28:14  0:09:05     67    53/M
    5. Alex Willis             0:28:23  0:09:08     69    54/M
    6. Evan Barnett            0:32:22  0:10:25    122    86/M
    7. Andrew Marts            0:56:00  0:18:01    263   138/M
 
 
 
Men 30-34
--------------------------------------------------------------
Place  Name                    Time     Pace    OvrAll   InSex
--------------------------------------------------------------
    1. Kevin Krumm             0:22:20  0:07:11     13    13/M
    2. Anthony Piazza          0:24:04  0:07:45     25    25/M
    3. Russell Stark           0:28:56  0:09:19     74    58/M
    4. Scott Wojtanik          0:29:10  0:09:23     78    62/M
    5. Eric Amos               0:30:51  0:09:56    105    76/M
    6. Andrew Pietka           0:32:22  0:10:25    124    87/M
    7. Patrick Fernandez       0:32:33  0:10:29    129    89/M
    8. Anthony Cumbo           0:44:59  0:14:29    232   126/M
 
 
 
Men 35-39
--------------------------------------------------------------
Place  Name                    Time     Pace    OvrAll   InSex
--------------------------------------------------------------
    1. Christopher Smykal      0:19:16  0:06:12      1     1/M
    2. Robert Julian           0:21:28  0:06:55      4     4/M
    3. Steven Cahoon           0:22:55  0:07:23     18    18/M
    4. Eric Lunser             0:23:44  0:07:38     23    23/M
    5. Adam Lai                0:24:32  0:07:54     30    29/M
    6. Douglas Coe             0:29:38  0:09:32     86    67/M
    7. Jeff Cwierly            0:29:47  0:09:35     89    69/M
    8. Adam Szucs              0:31:04  0:10:00    106    77/M
    9. Donald Szumigala        0:35:07  0:11:18    161   102/M
   10. Jose Vargas             0:39:07  0:12:35    199   119/M
   11. John Harris             0:46:43  0:15:02    241   130/M
   12. Scott Cielewich         0:57:17  0:18:26    265   139/M
 
 
 
Men 40-44
--------------------------------------------------------------
Place  Name                    Time     Pace    OvrAll   InSex
--------------------------------------------------------------
    1. Paul Hruby              0:26:07  0:08:24     45    41/M
    2. Glenn Pawlowski         0:28:51  0:09:17     73    57/M
    3. William Hill            0:29:09  0:09:23     77    61/M
    4. Christopher Bartnicki   0:29:15  0:09:25     80    64/M
    5. Raymond Murphy          0:33:53  0:10:54    145    97/M
    6. Chris Staley            0:34:45  0:11:11    156   100/M
    7. Chris Pitirri           0:37:02  0:11:55    178   111/M
    8. Christian Latona        0:42:27  0:13:40    218   122/M
    9. Joseph Pascaretta       0:48:12  0:15:31    244   132/M
 
 
 
Men 45-49
--------------------------------------------------------------
Place  Name                    Time     Pace    OvrAll   InSex
--------------------------------------------------------------
    1. Chris Wrisley           0:22:26  0:07:13     14    14/M
    2. Mark Musolino           0:22:33  0:07:15     15    15/M
    3. Timothy Callan          0:22:44  0:07:19     16    16/M
    4. Vince Piccolo           0:24:25  0:07:52     29    28/M
    5. Robert Cimini           0:24:46  0:07:58     32    31/M
    6. Dave Pokigo             0:26:37  0:08:34     49    43/M
    7. Carl Gayle              0:27:16  0:08:47     59    49/M
    8. Hector Garrido          0:28:36  0:09:12     70    55/M
    9. Jeffrey Stevens         0:29:02  0:09:21     76    60/M
   10. Patrick Griffin         0:29:32  0:09:30     85    66/M
   11. James Gerland           0:31:36  0:10:10    113    82/M
   12. Frederick Sulkowski     0:33:12  0:10:41    139    93/M
   13. Paul Uebelhoer          0:33:20  0:10:44    141    94/M
   14. Michael Huber           1:02:41  0:20:11    274   143/M
 
 
 
Men 50-54
--------------------------------------------------------------
Place  Name                    Time     Pace    OvrAll   InSex
--------------------------------------------------------------
    1. Paul Pulinski           0:20:55  0:06:44      2     2/M
    2. Terry Hunt              0:21:29  0:06:55      5     5/M
    3. Tim Renaud              0:22:17  0:07:10     12    12/M
    4. Mike Pasternak          0:23:00  0:07:24     19    19/M
    5. Don Strasser            0:23:11  0:07:28     21    21/M
    6. Richard Pasternak       0:24:10  0:07:47     26    26/M
    7. Steve Sirianni          0:24:40  0:07:56     31    30/M
    8. Kevin Pelino            0:24:58  0:08:02     34    32/M
    9. James Kern              0:25:58  0:08:21     42    38/M
   10. Fran Warthling          0:27:48  0:08:57     65    52/M
   11. Scott Ellsworth         0:29:42  0:09:34     87    68/M
   12. Gary Guzek              0:31:50  0:10:15    115    83/M
   13. Christopher Lalone      0:35:47  0:11:31    165   105/M
   14. Paul Phillips           0:36:16  0:11:40    169   107/M
   15. Harvey Lewis            0:41:18  0:13:18    209   121/M
   16. Tim Schuster            0:52:18  0:16:50    258   135/M
   17. Carmen Del Plato        0:59:56  0:19:17    269   140/M
   18. Paul Stephens           1:01:42  0:19:52    273   142/M
 
 
 
Men 55-59
--------------------------------------------------------------
Place  Name                    Time     Pace    OvrAll   InSex
--------------------------------------------------------------
    1. Ted Cincotti            0:21:10  0:06:49      3     3/M
    2. Stefano Scarpa          0:21:43  0:06:59      6     6/M
    3. Norman Nieminen         0:21:43  0:06:59      7     7/M
    4. Pete Walter             0:21:48  0:07:01      8     8/M
    5. Curt Mancuso            0:22:03  0:07:06     10    10/M
    6. Michael Lawrence        0:22:54  0:07:22     17    17/M
    7. Alan Jankowski          0:23:05  0:07:26     20    20/M
    8. Chuck Barnes            0:23:57  0:07:43     24    24/M
    9. Jason Hager             0:26:42  0:08:36     51    45/M
   10. Walter Ludwig           0:29:24  0:09:28     82    65/M
   11. Philip Kniejski         0:29:54  0:09:37     94    71/M
   12. Mike Del Plato          0:30:11  0:09:43     97    73/M
   13. Gerald Krayenvenger     0:31:24  0:10:06    112    81/M
   14. Robert Preskop          0:32:47  0:10:33    132    90/M
   15. Tom Motak               0:33:38  0:10:50    142    95/M
   16. Daniel Harrington       0:34:21  0:11:03    150    99/M
   17. Mike Krayenvenger       0:35:14  0:11:20    163   103/M
   18. Lee Smith               0:37:00  0:11:55    177   110/M
   19. Ken Newsom              0:37:42  0:12:08    184   114/M
   20. Jim Bachwitz            0:39:41  0:12:46    202   120/M
   21. Douglas Hlavaty         0:44:01  0:14:10    227   125/M
   22. Roger Oppel             0:46:05  0:14:50    237   128/M
   23. Joe Romano              0:46:23  0:14:56    240   129/M
   24. Frank Ciccia            0:52:16  0:16:49    257   134/M
 
 
 
Men 60-64
--------------------------------------------------------------
Place  Name                    Time     Pace    OvrAll   InSex
--------------------------------------------------------------
    1. Lloyd Kitzmiller        0:23:35  0:07:35     22    22/M
    2. Frans Dewaal            0:25:27  0:08:11     40    36/M
    3. Ed Barauskas            0:26:38  0:08:34     50    44/M
    4. Richard Stuber          0:27:05  0:08:43     54    47/M
    5. Bruce Shaner            0:29:59  0:09:39     96    72/M
    6. Andy Schalberg          0:33:39  0:10:50    143    96/M
    7. Budd Bailey             0:34:53  0:11:14    160   101/M
    8. Ronald Cole             0:35:35  0:11:27    164   104/M
    9. John Leszak             0:42:41  0:13:44    219   123/M
   10. Dennis Hyde             0:52:32  0:16:55    260   136/M
 
 
 
Men 65-69
--------------------------------------------------------------
Place  Name                    Time     Pace    OvrAll   InSex
--------------------------------------------------------------
    1. Richard Gibson          0:24:14  0:07:48     27    27/M
    2. Fred Luongo             0:25:38  0:08:15     41    37/M
    3. Michael Irish           0:26:04  0:08:23     44    40/M
    4. Jerome Giglio           0:27:09  0:08:44     56    48/M
    5. Jim Tolon               0:27:46  0:08:56     64    51/M
    6. Tom Wilson              0:29:11  0:09:24     79    63/M
    7. Louis Badolato          0:30:31  0:09:49    101    74/M
    8. Keith Noren             0:31:18  0:10:04    110    79/M
    9. Jerry Sikorskyj         0:32:02  0:10:19    117    84/M
   10. Loren Jones             0:32:19  0:10:24    121    85/M
   11. Paul Piduch             0:33:02  0:10:38    135    91/M
   12. James Smigelski         0:33:09  0:10:40    137    92/M
   13. Willard Evans           0:36:09  0:11:38    166   106/M
   14. Michael Walter          0:36:46  0:11:50    174   108/M
   15. Larry Cichocki          0:36:50  0:11:51    176   109/M
   16. Edward Lewis            0:37:09  0:11:57    180   113/M
   17. David Dunkowski         0:38:20  0:12:20    189   116/M
   18. James Pedlow            0:38:35  0:12:25    192   117/M
   19. Russell Previte         0:38:53  0:12:31    197   118/M
   20. Kevin Gallagher         0:47:47  0:15:23    243   131/M
 
 
 
Men 70-74
--------------------------------------------------------------
Place  Name                    Time     Pace    OvrAll   InSex
--------------------------------------------------------------
    1. Joe Jakovac             0:26:25  0:08:30     46    42/M
    2. David Cady              0:27:17  0:08:47     60    50/M
    3. Dennis Sears            0:28:49  0:09:17     72    56/M
    4. Roger Paolini           0:29:49  0:09:36     91    70/M
    5. John Bell               0:31:18  0:10:04    111    80/M
    6. Jack Syracuse           0:37:58  0:12:13    186   115/M
    7. John Furman             0:43:59  0:14:09    226   124/M
    8. Paul Hassall            0:45:35  0:14:40    235   127/M
    9. John Radzikowski        0:51:04  0:16:26    253   133/M
 
 
 
Men 75-79
--------------------------------------------------------------
Place  Name                    Time     Pace    OvrAll   InSex
--------------------------------------------------------------
    1. Bobby Heard             0:32:28  0:10:27    125    88/M
    2. Ed Russell              0:34:16  0:11:02    148    98/M
    3. Bill Harden             0:37:07  0:11:57    179   112/M
 
 
 
Men 80-99
--------------------------------------------------------------
Place  Name                    Time     Pace    OvrAll   InSex
--------------------------------------------------------------
    1. Dick Gucwa              0:54:26  0:17:31    262   137/M



Top of Page








Age Graded Overall       Men - Age Groups       Women - Age Groups       Overall Finish Order
-----------------------------------------------------------------------------
AGPlace  Name                    AGtime    AGpct    Age    Time      Place   
-----------------------------------------------------------------------------
      1. Paul Pulinski           0:17:51   72.74%     54   0:20:55       2 
      2. Ted Cincotti            0:17:55   72.45%     55   0:21:10       3 
      3. Pete Walter             0:18:01   72.06%     58   0:21:48       8 
      4. Stefano Scarpa          0:18:14   71.18%     56   0:21:43       6 
      5. Norman Nieminen         0:18:23   70.62%     55   0:21:43       7 
      6. Jacqueline Fletcher     0:21:00   70.31%     63   0:27:22      62 
      7. Terry Hunt              0:18:29   70.27%     53   0:21:29       5 
      8. Christopher Smykal      0:18:30   70.16%     38   0:19:16       1 
      9. Curt Mancuso            0:18:40   69.55%     55   0:22:03      10 
     10. Richard Gibson          0:18:44   69.32%     66   0:24:14      27 
     11. Tim Renaud              0:19:01   68.28%     54   0:22:17      12 
     12. Lloyd Kitzmiller        0:19:01   68.27%     61   0:23:35      22 
     13. Michael Lawrence        0:19:05   68.05%     57   0:22:54      17 
     14. Kathy Gregoire          0:21:48   67.75%     59   0:27:02      53 
     15. Alan Jankowski          0:19:14   67.51%     57   0:23:05      20 
     16. Joe Jakovac             0:19:24   66.92%     71   0:26:25      46 
     17. Kathleen Rosiek         0:22:09   66.65%     58   0:27:09      55 
     18. David Cady              0:19:30   66.58%     73   0:27:17      60 
     19. Mike Pasternak          0:19:38   66.15%     54   0:23:00      19 
     20. Kim Strasser            0:22:22   66.01%     47   0:24:15      28 
     21. Chris Wrisley           0:19:54   65.26%     49   0:22:26      14 
     22. Fred Luongo             0:19:59   64.97%     65   0:25:38      41 
     23. Chuck Barnes            0:20:07   64.54%     56   0:23:57      24 
     24. Frans Dewaal            0:20:11   64.33%     63   0:25:27      40 
     25. Don Strasser            0:20:15   64.12%     51   0:23:11      21 
     26. Michael Irish           0:20:19   63.89%     65   0:26:04      44 
     27. Kathleen Donhauser      0:23:13   63.61%     61   0:29:30      84 
     28. Judy Mowery             0:23:17   63.43%     72   0:34:14     147 
     29. Dennis Sears            0:20:36   63.04%     73   0:28:49      72 
     30. Mark Musolino           0:20:36   63.02%     45   0:22:33      15 
     31. Jerome Giglio           0:20:37   62.99%     68   0:27:09      56 
     32. Timothy Callan          0:20:37   62.97%     46   0:22:44      16 
     33. Jody Musolino           0:23:34   62.67%     44   0:24:52      33 
     34. Robert Julian           0:20:54   62.13%     36   0:21:28       4 
     35. Edna Hyer               0:23:49   61.99%     84   0:43:22     222 
     36. Richard Pasternak       0:20:57   61.99%     52   0:24:10      26 
     37. Mac Mackenzie           0:24:13   60.99%     75   0:37:12     181 
     38. Steve Sirianni          0:21:23   60.73%     52   0:24:40      31 
     39. Jim Tolon               0:21:28   60.50%     66   0:27:46      64 
     40. Elizabeth Engler        0:24:27   60.38%     42   0:25:26      39 
     41. Kevin Pelino            0:21:48   59.54%     51   0:24:58      34 
     42. Ryan Phillips           0:21:50   59.47%     24   0:21:50       9 
     43. Richard Stuber          0:21:50   59.45%     61   0:27:05      54 
     44. Jason Hager             0:21:53   59.32%     59   0:26:42      51 
     45. Malcolm Lynch           0:22:07   58.70%     24   0:22:07      11 
     46. Robert Cimini           0:22:08   58.67%     48   0:24:46      32 
     47. James Kern              0:22:09   58.60%     54   0:25:58      42 
     48. Roger Paolini           0:22:10   58.58%     70   0:29:49      91 
     49. Amie Schirching         0:25:14   58.52%     35   0:25:24      38 
     50. Lisa Militello          0:25:16   58.46%     62   0:32:30     127 
     51. Kevin Krumm             0:22:13   58.44%     31   0:22:20      13 
     52. Vince Piccolo           0:22:18   58.20%     45   0:24:25      29 
     53. Steven Cahoon           0:22:26   57.87%     35   0:22:55      18 
     54. Bobby Heard             0:22:29   57.74%     75   0:32:28     125 
     55. Tina Marie Drumm        0:25:42   57.45%     61   0:32:40     130 
     56. Sheri Green             0:25:45   57.36%     44   0:27:10      57 
     57. Conor Tyree             0:22:39   57.31%     11   0:26:02      43 
     58. John Bell               0:22:41   57.22%     72   0:31:18     111 
     59. Ed Barauskas            0:22:44   57.13%     64   0:26:38      50 
     60. Tom Wilson              0:22:45   57.07%     65   0:29:11      79 
     61. Eric Lunser             0:22:48   56.95%     38   0:23:44      23 
     62. Christine Kogutowski    0:26:01   56.76%     47   0:28:12      66 
     63. Karen Schoenhals        0:26:27   55.84%     51   0:29:55      95 
     64. Elizabeth Rakowski      0:26:29   55.76%     24   0:26:29      47 
     65. Alexa Buzak             0:26:30   55.72%     27   0:26:30      48 
     66. Ed Russell              0:23:19   55.67%     76   0:34:16     148 
     67. Olivia Sweet            0:26:33   55.61%     10   0:31:16     109 
     68. Paula Leszak            0:26:34   55.58%     59   0:32:57     134 
     69. Gina Brown              0:26:48   55.10%     51   0:30:19     100 
     70. Louis Badolato          0:23:35   55.05%     66   0:30:31     101 
     71. Kimberly Kawa           0:26:51   55.01%     60   0:33:42     144 
     72. Adam Lai                0:23:44   54.72%     37   0:24:32      30 
     73. Keith Noren             0:23:46   54.64%     68   0:31:18     110 
     74. Bruce Shaner            0:23:47   54.61%     63   0:29:59      96 
     75. Anthony Piazza          0:23:47   54.59%     33   0:24:04      25 
     76. Marcy Burkett           0:27:11   54.32%     47   0:29:28      83 
     77. Molly Amos              0:27:12   54.29%     30   0:27:12      58 
     78. Erin Small              0:27:14   54.23%     37   0:27:35      63 
     79. Jenny Augustine         0:27:15   54.18%     33   0:27:19      61 
     80. Deborah Diblasi         0:27:20   54.03%     62   0:35:10     162 
     81. Walter Ludwig           0:24:06   53.87%     59   0:29:24      82 
     82. Caiden Tyree            0:24:12   53.63%     10   0:28:57      75 
     83. Paul Hruby              0:24:13   53.63%     43   0:26:07      45 
     84. Fran Warthling          0:24:17   53.47%     51   0:27:48      65 
     85. Stacey Curry            0:27:38   53.44%     64   0:36:28     171 
     86. Dave Pokigo             0:24:19   53.39%     45   0:26:37      49 
     87. Joan Golda              0:27:46   53.17%     60   0:34:52     158 
     88. Sharon Grogan           0:27:47   53.14%     60   0:34:53     159 
     89. Jerry Sikorskyj         0:24:33   52.90%     67   0:32:02     117 
     90. Carl Gayle              0:24:33   52.90%     47   0:27:16      59 
     91. Sherry Czechowski       0:27:55   52.89%     37   0:28:17      68 
     92. Loren Jones             0:24:46   52.43%     67   0:32:19     121 
     93. Kelly O'Connor          0:28:11   52.39%     49   0:31:12     108 
     94. Jennifer Pokigo         0:28:16   52.23%     44   0:29:50      92 
     95. Amanda Mikels           0:28:18   52.18%     44   0:29:52      93 
     96. James Smigelski         0:24:55   52.12%     69   0:33:09     137 
     97. Carolyn Lane            0:28:22   52.06%     57   0:34:21     149 
     98. Mike Del Plato          0:24:57   52.04%     58   0:30:11      97 
     99. Shaun Murphy            0:25:02   51.86%     29   0:25:04      35 
    100. Kathleen Walter         0:28:29   51.83%     67   0:39:06     198 
    101. Paul Piduch             0:25:05   51.77%     68   0:33:02     135 
    102. Matt Jankowski          0:25:07   51.69%     26   0:25:07      36 
    103. Noelle Barth            0:28:38   51.56%     39   0:29:16      81 
    104. Alexander Buzak         0:25:13   51.49%     23   0:25:13      37 
    105. Bill Harden             0:25:16   51.40%     76   0:37:07     179 
    106. Caitlyn Sears           0:28:47   51.30%     26   0:28:47      71 
    107. Philip Kniejski         0:25:19   51.29%     55   0:29:54      94 
    108. Eileen Hryckowian       0:28:59   50.94%     56   0:34:42     155 
    109. Donna Uebeihoer         0:29:04   50.81%     50   0:32:31     128 
    110. Colleen Kern            0:29:06   50.75%     51   0:32:55     133 
    111. Marianne Tyree          0:29:08   50.70%     39   0:29:46      88 
    112. Robin Sanecki           0:29:17   50.44%     41   0:30:15      99 
    113. Denise Clark            0:29:17   50.43%     48   0:32:04     118 
    114. Jeffrey Stevens         0:25:45   50.43%     49   0:29:02      76 
    115. Scott Ellsworth         0:25:56   50.05%     51   0:29:42      87 
    116. Gerald Krayenvenger     0:25:57   50.03%     58   0:31:24     112 
    117. Andi Schalberg          0:29:32   50.01%     58   0:36:11     167 
    118. Pamela Bierl            0:29:38   49.84%     47   0:32:07     119 
    119. Hector Garrido          0:26:08   49.69%     45   0:28:36      70 
    120. Julia Boot              0:29:48   49.55%     27   0:29:48      90 
    121. Hannah Holden           0:29:49   49.51%     45   0:31:44     114 
    122. Fran Rowe               0:30:04   49.12%     78   0:48:21     246 
    123. Josie Bearden           0:30:13   48.87%     24   0:30:13      98 
    124. Patrick Griffin         0:26:35   48.84%     47   0:29:32      85 
    125. Ann More                0:30:15   48.81%     56   0:36:13     168 
    126. Glenn Pawlowski         0:26:45   48.55%     43   0:28:51      73 
    127. John Vallone            0:26:51   48.36%     29   0:26:53      52 
    128. Sue Muldoon             0:30:37   48.24%     47   0:33:11     138 
    129. Christopher Bartnicki   0:26:55   48.23%     44   0:29:15      80 
    130. Kelsie Brownell         0:30:38   48.20%     29   0:30:38     103 
    131. Dana Santasiero         0:30:39   48.18%     24   0:30:39     104 
    132. Andy Schalberg          0:27:08   47.85%     61   0:33:39     143 
    133. Clara Worm              0:30:53   47.82%     16   0:31:54     116 
    134. Gary Guzek              0:27:10   47.80%     54   0:31:50     115 
    135. William Hill            0:27:13   47.70%     42   0:29:09      77 
    136. Robert Preskop          0:27:19   47.53%     57   0:32:47     132 
    137. Willard Evans           0:27:27   47.31%     68   0:36:09     166 
    138. Samuel Harris           0:27:34   47.11%     12   0:30:37     102 
    139. Doreen Miller           0:31:24   47.03%     53   0:36:19     170 
    140. Maureen Milligan        0:31:28   46.93%     56   0:37:40     183 
    141. Budd Bailey             0:27:54   46.54%     62   0:34:53     160 
    142. Judith Evans            0:31:48   46.44%     62   0:40:55     205 
    143. Amanda Umphreyville     0:31:59   46.17%     36   0:32:17     120 
    144. Daniel Harrington       0:28:10   46.11%     59   0:34:21     150 
    145. Jack Syracuse           0:28:13   46.01%     70   0:37:58     186 
    146. Garrett Chambers        0:28:14   45.99%     27   0:28:14      67 
    147. Douglas Coe             0:28:16   45.94%     39   0:29:38      86 
    148. Alex Willis             0:28:23   45.74%     25   0:28:23      69 
    149. James Gerland           0:28:27   45.64%     47   0:31:36     113 
    150. Erin Willis             0:32:22   45.62%     28   0:32:22     123 
    151. Deborah Delplato        0:32:23   45.61%     53   0:37:27     182 
    152. Larry Cichocki          0:28:28   45.61%     66   0:36:50     176 
    153. Tom Motak               0:28:28   45.60%     55   0:33:38     142 
    154. Danielle Vallone        0:32:29   45.46%     29   0:32:29     126 
    155. Russell Stark           0:28:36   45.41%     33   0:28:56      74 
    156. Michael Walter          0:28:40   45.30%     65   0:36:46     174 
    157. Laura Haas              0:32:37   45.27%     55   0:38:36     193 
    158. Logan Griffin           0:28:46   45.12%     13   0:31:04     107 
    159. Rachel Kingston         0:32:44   45.12%     31   0:32:44     131 
    160. Josette Smith           0:32:47   45.04%     44   0:34:36     153 
    161. Mike Krayenvenger       0:28:53   44.95%     59   0:35:14     163 
    162. Ronald Cole             0:28:56   44.87%     60   0:35:35     164 
    163. Edward Lewis            0:28:58   44.83%     65   0:37:09     180 
    164. Jeff Cwierly            0:28:59   44.78%     36   0:29:47      89 
    165. Sandra Mohan            0:33:00   44.76%     43   0:34:33     152 
    166. Scott Wojtanik          0:29:01   44.75%     31   0:29:10      78 
    167. Courtney Krumm          0:33:05   44.63%     29   0:33:05     136 
    168. Diana Korzhukova        0:33:18   44.34%     24   0:33:18     140 
    169. David Dunkowski         0:29:22   44.20%     67   0:38:20     189 
    170. James Pedlow            0:29:34   43.92%     67   0:38:35     192 
    171. Paul Uebelhoer          0:29:47   43.59%     48   0:33:20     141 
    172. Melissa Welch           0:33:58   43.48%     31   0:33:58     146 
    173. Krista Shafer           0:34:01   43.41%     38   0:34:36     154 
    174. Rayann Wheeler          0:34:03   43.38%     46   0:36:33     172 
    175. Adriane Spencer         0:34:08   43.27%     36   0:34:27     151 
    176. Russell Previte         0:30:03   43.20%     66   0:38:53     197 
    177. Lisa Slebioda           0:34:17   43.08%     46   0:36:48     175 
    178. Adam Szucs              0:30:14   42.93%     36   0:31:04     106 
    179. Frederick Sulkowski     0:30:20   42.80%     45   0:33:12     139 
    180. Madeleine Harris        0:34:37   42.67%     10   0:40:45     204 
    181. Lee Smith               0:30:35   42.46%     58   0:37:00     177 
    182. Ashley Chambers         0:34:48   42.43%     30   0:34:48     157 
    183. Eric Amos               0:30:41   42.31%     31   0:30:51     105 
    184. Christopher Lalone      0:30:46   42.19%     53   0:35:47     165 
    185. Donna Hlavaty           0:35:04   42.10%     58   0:42:59     221 
    186. Lori Motak              0:35:06   42.07%     53   0:40:36     203 
    187. Kathleen Callan         0:35:11   41.98%     46   0:37:46     185 
    188. Patricia Cochrane       0:35:14   41.91%     63   0:45:55     236 
    189. Rachel Burns            0:35:23   41.73%     48   0:38:45     195 
    190. Lisa Wagner             0:35:46   41.29%     47   0:38:46     196 
    191. Kimberly Emminger       0:35:47   41.26%     45   0:38:05     188 
    192. Dick Gucwa              0:31:31   41.19%     83   0:54:26     262 
    193. Raymond Murphy          0:31:38   41.04%     42   0:33:53     145 
    194. Erica Newsome           0:36:12   40.79%     45   0:38:31     190 
    195. Donna Gilbert           0:36:16   40.72%     61   0:46:05     238 
    196. Dawn Kubicki            0:36:17   40.69%     36   0:36:38     173 
    197. Jody Lalone             0:36:18   40.69%     53   0:41:59     215 
    198. Ken Newsom              0:31:55   40.68%     55   0:37:42     184 
    199. Paul Phillips           0:31:55   40.68%     50   0:36:16     169 
    200. Andrew Pietka           0:32:12   40.33%     31   0:32:22     124 
    201. Christina Uebelhoer     0:36:48   40.12%     50   0:41:11     207 
    202. Evan Barnett            0:32:22   40.11%     26   0:32:22     122 
    203. Patrick Fernandez       0:32:23   40.10%     31   0:32:33     129 
    204. Chris Staley            0:32:27   40.02%     42   0:34:45     156 
    205. Sienna Uebelhoer        0:36:55   39.99%     12   0:41:13     208 
    206. John Furman             0:32:42   39.71%     70   0:43:59     226 
    207. Noelle Jurkowski        0:37:16   39.62%     10   0:43:53     225 
    208. Angie Lanzo             0:37:24   39.48%     38   0:38:03     187 
    209. Lori Trock              0:37:28   39.41%     41   0:38:43     194 
    210. Terra Bialy             0:37:35   39.28%     43   0:39:22     201 
    211. Jim Bachwitz            0:33:04   39.27%     57   0:39:41     202 
    212. Catherine Cielewich     0:38:01   38.84%     41   0:39:17     200 
    213. Paul Hassall            0:33:29   38.78%     71   0:45:35     235 
    214. Darlene Bigos           0:38:18   38.56%     35   0:38:33     191 
    215. Donald Szumigala        0:33:44   38.49%     38   0:35:07     161 
    216. John Leszak             0:34:25   37.72%     61   0:42:41     219 
    217. Chris Pitirri           0:34:35   37.55%     42   0:37:02     178 
    218. Sharon Koszuta          0:39:56   36.98%     61   0:50:45     251 
    219. Barb Krajewski          0:40:03   36.87%     60   0:50:17     249 
    220. Rafiya Abbas            0:40:28   36.49%     43   0:42:23     217 
    221. Harvey Lewis            0:35:48   36.27%     52   0:41:18     209 
    222. Kathleen Sullivan       0:40:43   36.27%     53   0:47:06     242 
    223. Karen Hyde              0:40:48   36.19%     62   0:52:30     259 
    224. Mary Padasak            0:41:01   36.01%     31   0:41:01     206 
    225. Douglas Hlavaty         0:36:05   35.98%     59   0:44:01     227 
    226. Theresa North           0:41:12   35.84%     35   0:41:28     211 
    227. Meghan May              0:41:17   35.77%     34   0:41:27     210 
    228. Joanna Molnar           0:41:26   35.63%     75   1:03:40     279 
    229. Taylor Huber            0:41:30   35.58%     25   0:41:30     212 
    230. Heather Burger          0:41:35   35.51%     38   0:42:18     216 
    231. Kevin Gallagher         0:36:37   35.46%     67   0:47:47     243 
    232. Katherine Mikoley       0:41:49   35.31%     26   0:41:49     214 
    233. Cindy Stankiewicz       0:42:01   35.14%     56   0:50:18     250 
    234. Jessica Rodriguez       0:42:10   35.02%     37   0:42:43     220 
    235. Darlene Grllo           0:42:19   34.90%     44   0:44:39     229 
    236. Julianna Jurkowski      0:42:27   34.78%     41   0:43:52     224 
    237. John Radzikowski        0:37:30   34.62%     71   0:51:04     253 
    238. Roger Oppel             0:37:47   34.37%     59   0:46:05     237 
    239. Jose Vargas             0:38:05   34.10%     36   0:39:07     199 
    240. Jacquie Krajnik         0:43:41   33.80%     26   0:43:41     223 
    241. Jill Grosskopf          0:43:59   33.57%     39   0:44:57     231 
    242. Margaret Morris         0:44:02   33.54%     25   0:44:02     228 
    243. Marisa Scroger          0:44:04   33.50%     37   0:44:39     230 
    244. Joe Romano              0:38:57   33.33%     56   0:46:23     240 
    245. Christian Latona        0:39:04   33.23%     44   0:42:27     218 
    246. Andrea Galvin           0:44:39   33.07%     54   0:52:14     256 
    247. Elizabeth Cumbo         0:44:59   32.83%     28   0:44:59     233 
    248. Laura Cantwell          0:45:24   32.52%     31   0:45:25     234 
    249. Cheryl Foy              0:45:47   32.25%     37   0:46:23     239 
    250. Jill Finkley            0:46:23   31.83%     49   0:51:21     255 
    251. Kim Marts               0:47:20   31.20%     55   0:56:00     264 
    252. Teresa Pascaretta       0:47:31   31.08%     38   0:48:20     245 
    253. Dennis Hyde             0:42:01   30.90%     62   0:52:32     260 
    254. Carleen Yarington       0:48:20   30.55%     57   0:58:32     268 
    255. Sarah Diliberto         0:48:32   30.43%     34   0:48:44     247 
    256. Stacey Woods            0:49:55   29.58%     22   0:49:55     248 
    257. Frank Ciccia            0:43:54   29.58%     56   0:52:16     257 
    258. Annette Sweet           0:50:06   29.48%     37   0:50:45     252 
    259. Joseph Pascaretta       0:44:22   29.27%     44   0:48:12     244 
    260. Tim Schuster            0:44:38   29.09%     54   0:52:18     258 
    261. Anthony Cumbo           0:44:51   28.95%     30   0:44:59     232 
    262. John Harris             0:45:28   28.55%     36   0:46:43     241 
    263. Jillian Kenyon          0:51:44   28.55%     38   0:52:37     261 
    264. Bridget Delplato        0:51:50   28.49%     53   0:59:57     270 
    265. Christine Digiore       0:51:57   28.42%     58   1:03:40     278 
    266. Natalie Jurkowski       0:53:31   27.59%     13   0:58:24     267 
    267. Cynthia Griffin         0:53:52   27.41%     45   0:57:19     266 
    268. Tracy Huber             0:56:07   26.31%     50   1:02:48     275 
    269. Carmen Del Plato        0:51:08   25.39%     54   0:59:56     269 
    270. Danielle Delplato       0:59:58   24.62%     22   0:59:58     272 
    271. Paul Stephens           0:53:04   24.47%     53   1:01:42     273 
    272. Scott Cielewich         0:54:38   23.76%     39   0:57:17     265 
    273. Colleen Oppel           1:02:31   23.62%     36   1:03:07     276 
    274. Jessie Burr             1:02:31   23.62%     36   1:03:07     277 
    275. Andrew Marts            0:55:59   23.19%     28   0:56:00     263 
    276. Michael Huber           0:57:16   22.67%     45   1:02:41     274 
    277. Joseph Delplato         0:59:58   21.65%     19   0:59:58     271 
    278. Jan Schaner             0:00:00   0.00%     61   0:41:40     213 
    279. #313                    0:00:00   0.00%   0-14   0:51:21     254 

Top of Page


Race Results At: BuffaloRunners.com